Time;durP1;ratioP1;P1;durP2;ratioP2;P2;SDS_P1;SDS_P2;PMS_P1;PMS_P2;Temp;Humidity;BMP_temperature;BMP_pressure;BME280_temperature;BME280_humidity;BME280_pressure;Samples;Min_cycle;Max_cycle;Signal;HPM_P1;HPM_P2
2023/07/04 00:07:32;;;;;;;3.67;2.17;;;;;;;;;;21006179;28;20049;-67
2023/07/04 00:17:33;;;;;;;6.53;3.05;;;;;;;;;;21005663;28;20097;-68
2023/07/04 00:27:34;;;;;;;9.75;4.13;;;;;;;;;;21005856;28;20063;-68
2023/07/04 00:37:36;;;;;;;6.00;3.97;;;;;;;;;;21003641;28;20575;-67
2023/07/04 00:47:43;;;;;;;7.13;4.13;;;;;;;;;;21003697;28;20041;-68
2023/07/04 00:57:46;;;;;;;6.05;4.03;;;;;;;;;;21003103;28;20052;-67
2023/07/04 01:07:51;;;;;;;7.82;3.38;;;;;;;;;;21001943;28;20401;-67
2023/07/04 01:17:53;;;;;;;8.43;3.30;;;;;;;;;;21000613;28;20093;-68
2023/07/04 01:27:59;;;;;;;4.55;2.60;;;;;;;;;;21000596;28;20383;-67
2023/07/04 01:38:01;;;;;;;5.28;2.22;;;;;;;;;;21000670;28;20061;-67
2023/07/04 01:48:02;;;;;;;4.18;1.90;;;;;;;;;;20999111;28;20524;-68
2023/07/04 01:58:03;;;;;;;4.43;2.40;;;;;;;;;;20998493;28;20045;-67
2023/07/04 02:08:05;;;;;;;5.85;2.40;;;;;;;;;;20997871;28;20047;-67
2023/07/04 02:18:06;;;;;;;6.03;2.38;;;;;;;;;;20997733;28;20117;-68
2023/07/04 02:28:07;;;;;;;3.92;2.55;;;;;;;;;;20997022;28;20051;-68
2023/07/04 02:38:09;;;;;;;5.93;2.63;;;;;;;;;;20995293;28;20440;-67
2023/07/04 02:48:10;;;;;;;4.68;2.50;;;;;;;;;;20996226;28;20048;-67
2023/07/04 02:58:11;;;;;;;6.40;3.95;;;;;;;;;;20994753;28;20040;-67
2023/07/04 03:08:12;;;;;;;4.63;2.22;;;;;;;;;;20995356;28;20053;-67
2023/07/04 03:18:13;;;;;;;2.95;2.45;;;;;;;;;;20993690;28;20119;-66
2023/07/04 03:28:14;;;;;;;8.25;4.95;;;;;;;;;;20994530;28;20079;-67
2023/07/04 03:38:16;;;;;;;3.92;2.45;;;;;;;;;;20997245;28;20048;-67
2023/07/04 03:48:17;;;;;;;4.18;2.35;;;;;;;;;;21008584;28;20040;-67
2023/07/04 03:58:18;;;;;;;3.03;2.30;;;;;;;;;;21007775;28;20379;-67
2023/07/04 04:08:19;;;;;;;5.97;3.33;;;;;;;;;;21006945;28;20409;-67
2023/07/04 04:18:20;;;;;;;4.55;2.60;;;;;;;;;;21005170;28;20048;-67
2023/07/04 04:28:21;;;;;;;3.88;2.20;;;;;;;;;;21004323;28;20052;-67
2023/07/04 04:38:22;;;;;;;3.70;2.33;;;;;;;;;;21003263;28;20117;-67
2023/07/04 04:48:29;;;;;;;8.27;3.08;;;;;;;;;;21002780;28;20098;-66
2023/07/04 04:58:30;;;;;;;6.43;2.95;;;;;;;;;;21002691;28;20520;-67
2023/07/04 05:08:31;;;;;;;4.70;3.03;;;;;;;;;;21002009;28;20040;-66
2023/07/04 05:18:33;;;;;;;4.47;3.05;;;;;;;;;;21000907;28;20052;-68
2023/07/04 05:28:34;;;;;;;7.75;3.33;;;;;;;;;;21000252;28;20048;-69
2023/07/04 05:38:36;;;;;;;7.18;3.75;;;;;;;;;;20999912;28;20053;-69
2023/07/04 05:48:38;;;;;;;7.50;3.88;;;;;;;;;;20998606;28;20048;-68
2023/07/04 05:58:40;;;;;;;6.82;3.80;;;;;;;;;;20998134;28;20510;-69
2023/07/04 06:08:41;;;;;;;8.40;3.53;;;;;;;;;;20996426;28;20186;-69
2023/07/04 06:18:43;;;;;;;6.15;3.63;;;;;;;;;;20997357;28;20052;-68
2023/07/04 06:28:44;;;;;;;8.25;4.10;;;;;;;;;;20997103;28;20036;-69
2023/07/04 06:38:45;;;;;;;5.97;3.42;;;;;;;;;;20994674;28;20060;-68
2023/07/04 06:48:47;;;;;;;8.13;3.90;;;;;;;;;;20994520;28;20045;-69
2023/07/04 06:58:52;;;;;;;10.27;4.80;;;;;;;;;;20995418;28;20504;-69
2023/07/04 07:08:53;;;;;;;6.95;3.58;;;;;;;;;;20994814;28;20496;-69
2023/07/04 07:18:55;;;;;;;8.82;4.22;;;;;;;;;;21008220;28;20045;-69
2023/07/04 07:28:56;;;;;;;9.35;4.40;;;;;;;;;;21008450;28;20075;-71
2023/07/04 07:38:58;;;;;;;9.93;4.28;;;;;;;;;;21007836;28;20495;-69
2023/07/04 07:49:00;;;;;;;8.00;3.65;;;;;;;;;;21006549;28;20049;-70
2023/07/04 07:59:01;;;;;;;4.65;2.88;;;;;;;;;;21007466;28;20110;-69
2023/07/04 08:09:05;;;;;;;5.97;3.33;;;;;;;;;;21006073;28;20452;-70
2023/07/04 08:19:06;;;;;;;6.90;2.65;;;;;;;;;;21003517;28;20044;-70
2023/07/04 08:29:08;;;;;;;5.60;2.78;;;;;;;;;;21003596;28;20044;-70
2023/07/04 08:39:09;;;;;;;5.25;2.72;;;;;;;;;;21003050;28;20505;-70
2023/07/04 08:49:24;;;;;;;7.10;2.60;;;;;;;;;;21004039;28;20049;-70
2023/07/04 08:59:37;;;;;;;2.67;2.03;;;;;;;;;;21001557;28;20048;-69
2023/07/04 09:09:48;;;;;;;4.03;2.63;;;;;;;;;;21002116;28;20087;-68
2023/07/04 09:19:50;;;;;;;5.75;2.33;;;;;;;;;;21001476;28;20037;-69
2023/07/04 09:29:52;;;;;;;4.53;2.42;;;;;;;;;;21000905;28;20067;-71
2023/07/04 09:39:54;;;;;;;4.50;2.50;;;;;;;;;;20999329;28;20067;-70
2023/07/04 09:50:11;;;;;;;3.95;2.80;;;;;;;;;;20997441;28;20071;-70
2023/07/04 10:00:26;;;;;;;8.38;4.60;;;;;;;;;;20998503;28;20047;-69
2023/07/04 10:10:28;;;;;;;3.10;2.22;;;;;;;;;;20996191;28;20059;-61
2023/07/04 10:20:35;;;;;;;8.68;2.10;;;;;;;;;;20996834;28;20186;-62
2023/07/04 10:30:37;;;;;;;3.13;2.13;;;;;;;;;;20997140;28;20040;-64
2023/07/04 10:40:40;;;;;;;3.25;2.38;;;;;;;;;;20997057;28;20406;-61
2023/07/04 10:50:47;;;;;;;3.85;2.08;;;;;;;;;;21005215;28;20080;-61
2023/07/04 11:00:58;;;;;;;3.65;2.13;;;;;;;;;;21011779;28;20410;-61
2023/07/04 11:11:05;;;;;;;3.33;2.28;;;;;;;;;;21010484;28;20051;-61
2023/07/04 11:21:12;;;;;;;2.97;2.30;;;;;;;;;;21010381;28;20122;-68
2023/07/04 11:31:30;;;;;;;3.42;2.40;;;;;;;;;;21009511;28;20051;-66
2023/07/04 11:41:37;;;;;;;2.83;2.13;;;;;;;;;;21007941;28;20040;-67
2023/07/04 11:51:38;;;;;;;3.70;2.40;;;;;;;;;;21007656;28;20401;-67
2023/07/04 12:01:55;;;;;;;3.03;2.22;;;;;;;;;;21005645;28;20048;-67
2023/07/04 12:11:57;;;;;;;4.20;2.08;;;;;;;;;;21006626;28;20401;-67
2023/07/04 12:21:59;;;;;;;2.42;1.83;;;;;;;;;;21006033;28;20048;-66
2023/07/04 12:32:04;;;;;;;2.65;2.00;;;;;;;;;;21003926;28;20065;-67
2023/07/04 12:42:06;;;;;;;2.20;1.63;;;;;;;;;;21003168;28;20059;-66
2023/07/04 12:52:07;;;;;;;2.28;1.75;;;;;;;;;;21003982;28;20041;-66
2023/07/04 13:02:17;;;;;;;2.10;1.40;;;;;;;;;;21002469;28;20041;-69
2023/07/04 13:12:23;;;;;;;3.30;2.17;;;;;;;;;;21000849;28;20047;-68
2023/07/04 13:22:25;;;;;;;3.92;2.03;;;;;;;;;;21001186;28;20426;-67
2023/07/04 13:32:38;;;;;;;3.33;1.83;;;;;;;;;;20999656;28;20057;-67
2023/07/04 13:42:39;;;;;;;3.72;1.98;;;;;;;;;;20999776;28;20051;-67
2023/07/04 13:52:40;;;;;;;2.40;1.83;;;;;;;;;;20998659;28;20076;-67
2023/07/04 14:02:41;;;;;;;3.78;1.48;;;;;;;;;;20998032;28;20076;-67
2023/07/04 14:12:42;;;;;;;2.03;1.40;;;;;;;;;;20997903;28;20048;-66
2023/07/04 14:22:43;;;;;;;4.80;1.65;;;;;;;;;;20995931;28;20049;-67
2023/07/04 14:32:44;;;;;;;4.18;1.40;;;;;;;;;;20995735;28;20546;-67
2023/07/04 14:42:46;;;;;;;4.65;1.60;;;;;;;;;;20996044;28;20454;-67
2023/07/04 14:52:47;;;;;;;4.57;1.70;;;;;;;;;;20996135;28;20542;-68
2023/07/04 15:02:48;;;;;;;3.45;1.80;;;;;;;;;;20995561;28;20530;-67
2023/07/04 15:12:49;;;;;;;7.50;5.00;;;;;;;;;;20995276;28;20394;-68
2023/07/04 15:22:51;;;;;;;4.57;1.98;;;;;;;;;;20994886;28;20528;-69
2023/07/04 15:32:53;;;;;;;4.03;2.08;;;;;;;;;;20996764;28;20052;-67
2023/07/04 15:42:55;;;;;;;3.72;1.90;;;;;;;;;;21009254;28;20083;-66
2023/07/04 15:52:56;;;;;;;2.47;1.73;;;;;;;;;;21007275;28;20041;-70
2023/07/04 16:02:57;;;;;;;3.10;1.65;;;;;;;;;;21006447;28;20057;-68
2023/07/04 16:12:58;;;;;;;5.38;2.00;;;;;;;;;;21006283;28;20041;-70
2023/07/04 16:22:59;;;;;;;4.97;1.80;;;;;;;;;;21005087;28;20041;-68
2023/07/04 16:33:00;;;;;;;2.85;1.77;;;;;;;;;;21004561;28;20117;-73
2023/07/04 16:43:02;;;;;;;2.25;1.80;;;;;;;;;;21004216;28;20446;-68
2023/07/04 16:53:03;;;;;;;3.22;1.70;;;;;;;;;;21004450;28;20553;-70
2023/07/04 17:03:04;;;;;;;2.22;1.48;;;;;;;;;;21001784;28;20040;-68
2023/07/04 17:13:05;;;;;;;4.22;1.77;;;;;;;;;;21001920;28;20588;-65
2023/07/04 17:23:06;;;;;;;6.38;2.13;;;;;;;;;;21000137;28;20049;-66
2023/07/04 17:33:08;;;;;;;2.97;1.60;;;;;;;;;;20998861;28;20082;-64
2023/07/04 17:43:10;;;;;;;1.50;1.23;;;;;;;;;;20999560;28;20048;-60
2023/07/04 17:53:12;;;;;;;4.68;1.50;;;;;;;;;;20997037;28;20070;-63
2023/07/04 18:03:13;;;;;;;1.95;1.40;;;;;;;;;;20997621;28;20507;-60
2023/07/04 18:13:15;;;;;;;3.28;1.55;;;;;;;;;;20997607;28;20045;-61
2023/07/04 18:23:16;;;;;;;2.33;1.38;;;;;;;;;;20996067;28;20166;-61
2023/07/04 18:33:17;;;;;;;3.33;1.70;;;;;;;;;;20996189;28;20048;-61
2023/07/04 18:43:18;;;;;;;4.53;1.30;;;;;;;;;;20996216;28;20059;-61
2023/07/04 18:53:19;;;;;;;2.55;1.88;;;;;;;;;;20995724;28;20123;-61
2023/07/04 19:03:21;;;;;;;2.00;1.40;;;;;;;;;;20994682;28;20131;-61
2023/07/04 19:13:22;;;;;;;2.85;1.70;;;;;;;;;;21006450;28;20049;-60
2023/07/04 19:23:23;;;;;;;5.47;2.10;;;;;;;;;;21008705;28;20076;-61
2023/07/04 19:33:25;;;;;;;2.53;1.90;;;;;;;;;;21008122;28;20052;-61
2023/07/04 19:43:26;;;;;;;6.70;2.03;;;;;;;;;;21008500;28;20511;-61
2023/07/04 19:53:28;;;;;;;4.38;2.17;;;;;;;;;;21007272;28;20464;-61
2023/07/04 20:03:29;;;;;;;3.60;2.20;;;;;;;;;;21007078;28;20098;-61
2023/07/04 20:13:31;;;;;;;5.13;2.40;;;;;;;;;;21006170;28;20080;-60
2023/07/04 20:23:32;;;;;;;7.03;2.70;;;;;;;;;;21003279;28;20037;-61
2023/07/04 20:33:34;;;;;;;5.10;3.03;;;;;;;;;;21004097;28;20500;-62
2023/07/04 20:43:36;;;;;;;7.53;3.38;;;;;;;;;;21004192;28;20044;-60
2023/07/04 20:53:38;;;;;;;5.03;2.72;;;;;;;;;;21001186;28;20048;-61
2023/07/04 21:03:39;;;;;;;9.65;6.93;;;;;;;;;;21002141;28;20052;-60
2023/07/04 21:13:40;;;;;;;5.78;3.83;;;;;;;;;;21001130;28;20055;-60
2023/07/04 21:23:41;;;;;;;10.40;4.38;;;;;;;;;;21000676;28;20048;-60
2023/07/04 21:33:43;;;;;;;11.13;4.72;;;;;;;;;;20998061;28;20136;-61
2023/07/04 21:43:44;;;;;;;9.40;4.95;;;;;;;;;;20997780;28;20098;-61
2023/07/04 21:53:45;;;;;;;8.60;5.13;;;;;;;;;;20997687;28;20044;-62
2023/07/04 22:03:46;;;;;;;8.15;5.25;;;;;;;;;;20998340;28;20075;-61
2023/07/04 22:13:47;;;;;;;9.57;6.68;;;;;;;;;;20997762;28;20482;-61
2023/07/04 22:23:49;;;;;;;9.88;5.63;;;;;;;;;;20997504;28;20486;-61
2023/07/04 22:34:00;;;;;;;13.30;6.68;;;;;;;;;;20996163;28;20056;-60
2023/07/04 22:44:01;;;;;;;12.80;7.00;;;;;;;;;;21001633;28;20040;-60
2023/07/04 22:54:02;;;;;;;11.38;6.85;;;;;;;;;;21012192;28;20045;-61
2023/07/04 23:04:04;;;;;;;12.48;7.18;;;;;;;;;;21011425;28;20095;-61
2023/07/04 23:14:05;;;;;;;9.55;6.07;;;;;;;;;;21010222;28;20092;-60
2023/07/04 23:24:06;;;;;;;10.32;6.00;;;;;;;;;;21010874;28;20397;-60
2023/07/04 23:34:07;;;;;;;11.45;6.22;;;;;;;;;;21008761;28;20502;-60
2023/07/04 23:44:08;;;;;;;12.25;6.43;;;;;;;;;;21008120;28;20079;-61
2023/07/04 23:54:09;;;;;;;11.68;6.32;;;;;;;;;;21006424;28;20087;-61
